createdAt,value
2022-11-28T00:02:36.654Z,71.34
2022-11-28T00:05:21.169Z,71.00
2022-11-28T00:08:05.672Z,70.94
2022-11-28T00:10:51.137Z,70.95
2022-11-28T00:13:35.216Z,71.24
2022-11-28T00:16:21.968Z,72.72
2022-11-28T00:19:07.702Z,71.61
2022-11-28T00:21:51.827Z,71.93
2022-11-28T00:24:35.837Z,72.89
2022-11-28T00:27:21.468Z,71.69
2022-11-28T00:30:05.927Z,73.58
2022-11-28T00:32:49.822Z,72.57
2022-11-28T00:35:33.791Z,71.78
2022-11-28T00:38:17.665Z,72.24
2022-11-28T00:41:02.436Z,70.85
2022-11-28T00:43:49.630Z,70.99
2022-11-28T00:46:33.562Z,70.81
2022-11-28T00:49:17.271Z,71.21
2022-11-28T00:52:01.167Z,70.50
2022-11-28T00:54:44.844Z,70.49
2022-11-28T00:57:28.664Z,72.19
2022-11-28T01:00:15.124Z,74.17
2022-11-28T01:02:59.550Z,74.85
2022-11-28T01:05:44.364Z,75.72
2022-11-28T01:08:29.205Z,75.91
2022-11-28T01:11:13.749Z,74.88
2022-11-28T01:13:58.551Z,76.48
2022-11-28T01:16:43.770Z,75.34
2022-11-28T01:19:27.804Z,75.90
2022-11-28T01:22:11.566Z,76.46
2022-11-28T01:24:55.351Z,75.61
2022-11-28T01:27:39.166Z,76.47
2022-11-28T01:30:22.960Z,75.83
2022-11-28T01:33:08.255Z,74.65
2022-11-28T01:35:56.690Z,75.92
2022-11-28T01:38:41.267Z,74.56
2022-11-28T01:41:27.956Z,75.77
2022-11-28T01:44:44.709Z,75.86
2022-11-28T01:47:31.716Z,75.81
2022-11-28T01:50:17.885Z,75.06
2022-11-28T01:53:07.889Z,75.06
2022-11-28T01:55:57.290Z,74.22
2022-11-28T01:58:45.632Z,73.80
2022-11-28T02:01:29.846Z,74.79
2022-11-28T02:04:14.903Z,74.33
2022-11-28T02:07:00.108Z,73.57
2022-11-28T02:09:43.792Z,74.49
2022-11-28T02:12:41.725Z,74.00
2022-11-28T02:15:39.002Z,74.09
2022-11-28T02:18:37.898Z,74.56
2022-11-28T02:21:34.106Z,75.69
2022-11-28T02:25:02.406Z,76.57
2022-11-28T02:28:29.775Z,75.49
2022-11-28T02:31:27.852Z,76.15
2022-11-28T02:34:21.349Z,75.87
2022-11-28T02:37:09.996Z,77.22
2022-11-28T02:40:04.454Z,77.28
2022-11-28T02:42:59.213Z,77.69
2022-11-28T02:45:51.795Z,78.17
2022-11-28T02:48:42.404Z,78.05
2022-11-28T02:51:33.124Z,78.88
2022-11-28T02:54:19.789Z,78.32
2022-11-28T02:57:04.162Z,79.32
2022-11-28T02:59:51.944Z,78.82
2022-11-28T03:02:36.331Z,79.11
2022-11-28T03:05:26.002Z,79.74
2022-11-28T03:08:24.947Z,79.11
2022-11-28T03:11:16.763Z,79.36
2022-11-28T03:14:09.419Z,79.29
2022-11-28T03:17:02.886Z,78.66
2022-11-28T03:19:57.343Z,77.95
2022-11-28T03:22:50.307Z,77.19
2022-11-28T03:25:41.777Z,77.15
2022-11-28T03:28:31.728Z,77.07
2022-11-28T03:31:18.328Z,76.91
2022-11-28T03:34:03.479Z,78.00
2022-11-28T03:36:51.372Z,77.51
2022-11-28T03:39:39.370Z,76.74
2022-11-28T03:42:28.385Z,76.46
2022-11-28T03:45:15.068Z,77.23
2022-11-28T03:48:02.257Z,77.70
2022-11-28T03:50:51.062Z,77.98
2022-11-28T03:53:43.551Z,78.33
2022-11-28T03:56:37.088Z,77.18
2022-11-28T03:59:27.631Z,78.48
2022-11-28T04:02:19.118Z,78.15
2022-11-28T04:05:06.923Z,78.43
2022-11-28T04:07:55.184Z,78.56
2022-11-28T04:10:44.498Z,78.52
2022-11-28T04:13:34.237Z,78.33
2022-11-28T04:16:24.136Z,78.36
2022-11-28T04:19:14.626Z,78.82
2022-11-28T04:22:03.094Z,77.91
2022-11-28T04:24:52.625Z,78.92
2022-11-28T04:27:39.748Z,79.44
2022-11-28T04:30:23.584Z,79.38
2022-11-28T04:33:11.903Z,79.83
2022-11-28T04:35:57.769Z,79.23
2022-11-28T04:38:43.553Z,79.29
2022-11-28T04:41:34.491Z,79.85
2022-11-28T04:44:25.632Z,79.83
2022-11-28T04:47:09.824Z,80.06
2022-11-28T04:49:55.848Z,79.83
2022-11-28T04:52:46.241Z,80.60
2022-11-28T04:55:36.891Z,80.93
2022-11-28T04:58:24.089Z,80.00
2022-11-28T05:01:12.663Z,80.48
2022-11-28T05:03:56.628Z,79.50
2022-11-28T05:06:41.888Z,79.83
2022-11-28T05:09:25.631Z,80.09
2022-11-28T05:12:09.611Z,80.27
2022-11-28T05:14:53.467Z,79.80
2022-11-28T05:17:42.162Z,79.13
2022-11-28T05:20:26.482Z,78.66
2022-11-28T05:23:11.728Z,78.77
2022-11-28T05:25:55.598Z,78.66
2022-11-28T05:28:39.613Z,78.44
2022-11-28T05:31:23.688Z,78.28
2022-11-28T05:34:07.470Z,77.65
2022-11-28T05:36:51.182Z,77.38
2022-11-28T05:39:36.334Z,77.40
2022-11-28T05:42:20.448Z,77.60
2022-11-28T05:45:05.763Z,76.51
2022-11-28T05:47:49.713Z,76.88
2022-11-28T05:50:38.502Z,76.83
2022-11-28T05:53:23.783Z,77.29
2022-11-28T05:56:10.487Z,76.18
2022-11-28T05:58:54.823Z,76.88
2022-11-28T06:01:38.811Z,76.31
2022-11-28T06:04:22.795Z,76.36
2022-11-28T06:07:06.857Z,76.07
2022-11-28T06:09:50.803Z,76.15
2022-11-28T06:12:36.585Z,76.02
2022-11-28T06:15:20.622Z,76.76
2022-11-28T06:18:04.644Z,75.97
2022-11-28T06:20:48.744Z,76.35
2022-11-28T06:23:33.106Z,75.97
2022-11-28T06:26:19.647Z,75.08
2022-11-28T06:29:05.671Z,75.81
2022-11-28T06:31:49.935Z,75.27
2022-11-28T06:34:33.981Z,75.98
2022-11-28T06:37:18.118Z,76.13
2022-11-28T06:40:02.124Z,75.48
2022-11-28T06:42:56.285Z,75.04
2022-11-28T06:45:41.831Z,75.79
2022-11-28T06:48:26.235Z,75.28
2022-11-28T06:51:10.498Z,74.91
2022-11-28T06:53:55.723Z,74.86
2022-11-28T06:56:41.472Z,74.17
2022-11-28T06:59:25.343Z,74.17
2022-11-28T07:02:12.103Z,74.08
2022-11-28T07:04:56.057Z,73.44
2022-11-28T07:07:53.260Z,73.02
2022-11-28T07:10:38.699Z,73.04
2022-11-28T07:13:22.625Z,72.83
2022-11-28T07:16:07.312Z,73.10
2022-11-28T07:18:53.959Z,72.12
2022-11-28T07:21:37.901Z,72.27
2022-11-28T07:24:21.887Z,71.77
2022-11-28T07:27:05.895Z,71.80
2022-11-28T07:29:49.864Z,71.23
2022-11-28T07:32:34.049Z,71.36
2022-11-28T07:35:19.597Z,71.74
2022-11-28T07:38:03.544Z,71.54
2022-11-28T07:40:47.687Z,70.81
2022-11-28T07:43:31.665Z,71.10
2022-11-28T07:46:18.370Z,70.42
2022-11-28T07:49:02.974Z,70.06
2022-11-28T07:51:48.687Z,68.78
2022-11-28T07:54:32.890Z,69.81
2022-11-28T07:57:16.998Z,70.17
2022-11-28T08:00:00.919Z,69.90
2022-11-28T08:02:45.367Z,70.29
2022-11-28T08:05:29.295Z,71.34
2022-11-28T08:08:15.007Z,71.88
2022-11-28T08:11:00.184Z,71.39
2022-11-28T08:13:44.697Z,72.21
2022-11-28T08:16:30.396Z,71.24
2022-11-28T08:19:14.673Z,71.77
2022-11-28T08:21:58.916Z,72.48
2022-11-28T08:24:44.988Z,72.07
2022-11-28T08:27:29.279Z,73.14
2022-11-28T08:30:13.886Z,74.99
2022-11-28T08:32:58.656Z,76.80
2022-11-28T08:35:42.816Z,76.93
2022-11-28T08:38:26.758Z,78.27
2022-11-28T08:41:14.557Z,78.65
2022-11-28T08:43:58.768Z,77.47
2022-11-28T08:46:43.009Z,78.01
2022-11-28T08:49:27.072Z,77.48
2022-11-28T08:52:11.242Z,77.50
2022-11-28T08:54:55.779Z,77.89
2022-11-28T08:57:41.312Z,77.32
2022-11-28T09:00:25.727Z,77.54
2022-11-28T09:03:11.826Z,77.07
2022-11-28T09:06:02.500Z,76.19
2022-11-28T09:08:46.996Z,76.37
2022-11-28T09:11:31.096Z,75.81
2022-11-28T09:14:16.434Z,75.39
2022-11-28T09:17:00.584Z,75.12
2022-11-28T09:19:45.052Z,75.92
2022-11-28T09:22:30.493Z,77.05
2022-11-28T09:25:14.653Z,80.01
2022-11-28T09:27:58.684Z,79.89
2022-11-28T09:30:44.326Z,78.70
2022-11-28T09:33:28.611Z,79.19
2022-11-28T09:36:14.767Z,79.21
2022-11-28T09:39:01.595Z,77.86
2022-11-28T09:41:58.788Z,78.08
2022-11-28T09:44:46.436Z,79.09
2022-11-28T09:47:36.921Z,78.60
2022-11-28T09:50:24.954Z,79.22
2022-11-28T09:53:25.100Z,79.00
2022-11-28T09:56:15.711Z,78.79
2022-11-28T09:59:03.924Z,79.05
2022-11-28T10:01:57.085Z,79.23
2022-11-28T10:04:48.592Z,79.44
2022-11-28T10:07:41.484Z,79.23
2022-11-28T10:10:37.175Z,79.19
2022-11-28T10:13:32.689Z,79.34
2022-11-28T10:16:34.488Z,78.32
2022-11-28T10:19:57.124Z,79.17
2022-11-28T10:22:38.623Z,78.34
2022-11-28T10:25:28.045Z,78.71
2022-11-28T10:28:17.501Z,78.00
2022-11-28T10:31:08.146Z,77.13
2022-11-28T10:33:59.240Z,77.74
2022-11-28T10:36:53.542Z,76.86
2022-11-28T10:39:42.218Z,76.86
2022-11-28T10:42:35.813Z,77.26
2022-11-28T10:45:28.349Z,77.24
2022-11-28T10:48:38.969Z,78.33
2022-11-28T10:51:36.370Z,77.50
2022-11-28T10:54:30.167Z,78.56
2022-11-28T10:57:22.450Z,78.91
2022-11-28T11:00:12.419Z,79.01
2022-11-28T11:02:58.297Z,79.13
2022-11-28T11:05:43.172Z,79.88
2022-11-28T11:08:29.274Z,79.22
2022-11-28T11:11:25.899Z,78.17
2022-11-28T11:14:12.782Z,78.97
2022-11-28T11:16:59.468Z,80.12
2022-11-28T11:19:43.977Z,78.81
2022-11-28T11:22:32.032Z,79.81
2022-11-28T11:25:21.315Z,78.42
2022-11-28T11:28:06.424Z,79.03
2022-11-28T11:31:00.629Z,79.60
2022-11-28T11:33:45.110Z,79.08
2022-11-28T11:36:31.991Z,79.12
2022-11-28T11:39:25.521Z,79.84
2022-11-28T11:42:20.843Z,79.85
2022-11-28T11:45:27.983Z,78.80
2022-11-28T11:48:13.953Z,77.29
2022-11-28T11:50:58.130Z,78.49
2022-11-28T11:53:42.460Z,78.46
2022-11-28T11:56:28.007Z,78.01
2022-11-28T11:59:17.532Z,78.49
2022-11-28T12:02:04.201Z,78.90
2022-11-28T12:04:56.401Z,78.22
2022-11-28T12:07:49.703Z,78.32
2022-11-28T12:10:37.900Z,78.03
2022-11-28T12:13:26.174Z,77.93
2022-11-28T12:16:22.888Z,78.79
2022-11-28T12:19:19.041Z,77.70
2022-11-28T12:22:16.700Z,78.32
2022-11-28T12:25:10.710Z,78.71
2022-11-28T12:28:06.855Z,77.73
2022-11-28T12:31:04.402Z,78.25
2022-11-28T12:34:00.817Z,78.78
2022-11-28T12:36:53.902Z,78.53
2022-11-28T12:39:52.375Z,78.01
2022-11-28T12:42:51.977Z,78.68
2022-11-28T12:45:45.441Z,78.70
2022-11-28T12:48:42.576Z,78.91
2022-11-28T12:51:39.961Z,78.59
2022-11-28T12:54:40.849Z,78.31
2022-11-28T12:57:37.402Z,78.32
2022-11-28T13:00:23.785Z,77.71
2022-11-28T13:03:15.012Z,77.16
2022-11-28T13:06:10.777Z,77.52
2022-11-28T13:09:08.033Z,77.82
2022-11-28T13:12:01.079Z,77.53
2022-11-28T13:14:53.920Z,77.26
2022-11-28T13:17:44.223Z,77.47
2022-11-28T13:20:34.794Z,77.95
2022-11-28T13:23:24.295Z,77.31
2022-11-28T13:26:14.159Z,77.31
2022-11-28T13:29:04.921Z,77.63
2022-11-28T13:32:00.328Z,76.93
2022-11-28T13:34:47.130Z,75.74
2022-11-28T13:40:47.370Z,76.10
2022-11-28T13:43:42.428Z,77.32
2022-11-28T13:46:26.839Z,76.78
2022-11-28T13:49:21.615Z,77.00
2022-11-28T13:52:34.159Z,76.88
2022-11-28T13:55:39.287Z,76.84
2022-11-28T13:58:28.472Z,76.51
2022-11-28T14:01:15.692Z,77.03
2022-11-28T14:04:09.043Z,77.51
2022-11-28T14:07:00.307Z,77.07
2022-11-28T14:09:56.977Z,76.39
2022-11-28T14:12:50.399Z,77.83
2022-11-28T14:15:58.365Z,76.86
2022-11-28T14:19:03.144Z,77.76
2022-11-28T14:22:00.983Z,77.89
2022-11-28T14:24:58.280Z,77.90
2022-11-28T14:27:52.138Z,78.37
2022-11-28T14:30:41.296Z,78.19
2022-11-28T14:33:33.388Z,79.13
2022-11-28T14:36:26.799Z,79.59
2022-11-28T14:39:33.245Z,79.23
2022-11-28T14:45:45.926Z,79.23
2022-11-28T14:48:32.922Z,79.91
2022-11-28T14:51:17.007Z,81.08
2022-11-28T14:54:00.856Z,81.36
2022-11-28T14:56:46.323Z,82.21
2022-11-28T14:59:34.778Z,83.54
2022-11-28T15:02:33.783Z,83.34
2022-11-28T15:05:37.379Z,84.39
2022-11-28T15:08:36.629Z,85.71
2022-11-28T15:12:12.376Z,85.98
2022-11-28T15:14:58.995Z,86.55
2022-11-28T15:17:47.576Z,86.70
2022-11-28T15:20:38.089Z,86.91
2022-11-28T15:23:26.535Z,86.88
2022-11-28T15:26:20.879Z,87.02
2022-11-28T15:29:19.458Z,87.63
2022-11-28T15:32:05.963Z,87.00
2022-11-28T15:34:55.405Z,87.60
2022-11-28T15:37:39.630Z,87.31
2022-11-28T15:40:27.934Z,88.06
2022-11-28T15:43:15.665Z,88.28
2022-11-28T15:46:03.294Z,89.11
2022-11-28T15:48:50.909Z,88.90
2022-11-28T15:51:36.441Z,89.47
2022-11-28T15:54:33.407Z,89.29
2022-11-28T15:57:23.637Z,89.34
2022-11-28T16:00:13.706Z,89.54
2022-11-28T16:02:59.341Z,89.69
2022-11-28T16:05:43.779Z,89.19
2022-11-28T16:08:31.643Z,89.13
2022-11-28T16:11:19.865Z,89.68
2022-11-28T16:14:09.553Z,89.62
2022-11-28T16:16:53.853Z,89.36
2022-11-28T16:19:39.559Z,88.69
2022-11-28T16:22:28.444Z,89.47
2022-11-28T16:25:16.136Z,89.86
2022-11-28T16:28:00.419Z,89.28
2022-11-28T16:30:47.913Z,89.40
2022-11-28T16:33:39.972Z,89.88
2022-11-28T16:36:27.418Z,89.81
2022-11-28T16:39:17.026Z,89.74
2022-11-28T16:42:08.335Z,90.15
2022-11-28T16:44:52.204Z,90.65
2022-11-28T16:47:37.244Z,90.60
2022-11-28T16:50:23.599Z,90.24
2022-11-28T16:53:43.483Z,90.70
2022-11-28T16:56:42.766Z,90.89
2022-11-28T16:59:27.239Z,90.97
2022-11-28T17:02:16.794Z,91.07
2022-11-28T17:05:01.127Z,90.85
2022-11-28T17:07:45.108Z,90.72
2022-11-28T17:10:30.677Z,90.90
2022-11-28T17:13:15.013Z,90.49
2022-11-28T17:15:59.863Z,90.88
2022-11-28T17:18:43.589Z,90.50
2022-11-28T17:21:33.450Z,91.17
2022-11-28T17:24:20.035Z,91.42
2022-11-28T17:27:07.983Z,90.74
2022-11-28T17:29:52.177Z,90.25
2022-11-28T17:32:36.276Z,91.07
2022-11-28T17:35:24.507Z,91.15
2022-11-28T17:38:08.285Z,90.79
2022-11-28T17:40:52.358Z,90.76
2022-11-28T17:43:39.398Z,90.77
2022-11-28T17:46:23.506Z,90.89
2022-11-28T17:49:07.752Z,91.20
2022-11-28T17:51:51.870Z,91.39
2022-11-28T17:54:35.908Z,90.91
2022-11-28T17:57:19.975Z,91.28
2022-11-28T18:00:06.616Z,90.82
2022-11-28T18:02:59.010Z,91.40
2022-11-28T18:05:45.791Z,91.35
2022-11-28T18:08:29.830Z,91.13
2022-11-28T18:11:15.970Z,91.30
2022-11-28T18:14:00.348Z,91.02
2022-11-28T18:16:46.611Z,91.16
2022-11-28T18:19:30.928Z,91.32
2022-11-28T18:22:14.880Z,91.32
2022-11-28T18:24:59.237Z,90.72
2022-11-28T18:27:43.213Z,91.02
2022-11-28T18:30:27.453Z,91.63
2022-11-28T18:33:13.109Z,90.42
2022-11-28T18:35:57.249Z,90.78
2022-11-28T18:38:41.606Z,90.26
2022-11-28T18:41:26.231Z,90.37
2022-11-28T18:44:12.224Z,89.79
2022-11-28T18:46:56.013Z,90.00
2022-11-28T18:49:41.699Z,90.63
2022-11-28T18:52:25.721Z,90.02
2022-11-28T18:55:10.259Z,90.39
2022-11-28T18:57:54.686Z,90.28
2022-11-28T19:00:39.064Z,90.29
2022-11-28T19:03:22.948Z,90.40
2022-11-28T19:06:09.898Z,90.24
2022-11-28T19:08:55.156Z,89.79
2022-11-28T19:11:39.850Z,90.43
2022-11-28T19:14:24.313Z,90.61
2022-11-28T19:17:08.855Z,90.37
2022-11-28T19:19:53.218Z,90.01
2022-11-28T19:22:38.458Z,90.04
2022-11-28T19:25:22.291Z,89.80
2022-11-28T19:28:06.571Z,90.33
2022-11-28T19:30:50.435Z,90.39
2022-11-28T19:33:34.857Z,90.08
2022-11-28T19:36:19.098Z,90.63
2022-11-28T19:39:05.294Z,90.23
2022-11-28T19:41:50.472Z,90.51
2022-11-28T19:44:35.212Z,90.44
2022-11-28T19:47:20.077Z,90.12
2022-11-28T19:50:05.168Z,89.81
2022-11-28T19:52:49.305Z,90.46
2022-11-28T19:55:36.098Z,90.21
2022-11-28T19:58:20.192Z,90.23
2022-11-28T20:01:06.624Z,90.31
2022-11-28T20:03:52.214Z,90.16
2022-11-28T20:06:36.489Z,90.48
2022-11-28T20:09:20.710Z,90.22
2022-11-28T20:12:07.042Z,90.98
2022-11-28T20:14:51.182Z,91.25
2022-11-28T20:17:35.149Z,91.37
2022-11-28T20:20:19.248Z,90.73
2022-11-28T20:23:03.290Z,91.46
2022-11-28T20:25:47.160Z,91.49
2022-11-28T20:28:35.250Z,91.96
2022-11-28T20:31:22.098Z,91.32
2022-11-28T20:34:06.933Z,91.14
2022-11-28T20:36:52.901Z,91.22
2022-11-28T20:39:36.897Z,91.33
2022-11-28T20:42:20.940Z,90.82
2022-11-28T20:45:07.161Z,90.61
2022-11-28T20:47:50.898Z,91.21
2022-11-28T20:50:34.745Z,91.01
2022-11-28T20:53:23.616Z,91.04
2022-11-28T20:56:13.585Z,91.25
2022-11-28T20:58:58.994Z,91.71
2022-11-28T21:01:44.918Z,92.04
2022-11-28T21:04:28.569Z,93.32
2022-11-28T21:07:12.300Z,93.17
2022-11-28T21:09:59.925Z,93.33
2022-11-28T21:12:43.700Z,93.41
2022-11-28T21:15:27.525Z,92.64
2022-11-28T21:18:13.255Z,92.37
2022-11-28T21:20:56.952Z,93.06
2022-11-28T21:23:41.057Z,92.61
2022-11-28T21:26:30.183Z,92.83
2022-11-28T21:29:14.548Z,93.05
2022-11-28T21:31:58.363Z,92.87
2022-11-28T21:34:43.793Z,92.51
2022-11-28T21:37:27.506Z,93.12
2022-11-28T21:40:12.564Z,92.98
2022-11-28T21:42:56.449Z,92.66
2022-11-28T21:45:40.272Z,92.95
2022-11-28T21:48:25.013Z,92.95
2022-11-28T21:51:17.099Z,92.73
2022-11-28T21:54:02.136Z,93.27
2022-11-28T21:56:45.899Z,93.40
2022-11-28T21:59:29.706Z,93.21
2022-11-28T22:02:15.663Z,94.27
2022-11-28T22:05:00.129Z,94.43
2022-11-28T22:07:45.632Z,93.72
2022-11-28T22:10:29.403Z,93.73
2022-11-28T22:13:13.193Z,94.42
2022-11-28T22:15:57.087Z,93.95
2022-11-28T22:18:41.405Z,94.10
2022-11-28T22:24:33.019Z,94.42
2022-11-28T22:27:16.736Z,93.77
2022-11-28T22:30:00.451Z,94.80
2022-11-28T22:32:44.184Z,94.65
2022-11-28T22:35:27.952Z,94.64
2022-11-28T22:38:11.846Z,94.16
2022-11-28T22:40:57.211Z,95.05
2022-11-28T22:43:41.523Z,95.44
2022-11-28T22:46:25.875Z,95.17
2022-11-28T22:49:11.364Z,96.04
2022-11-28T22:51:55.635Z,95.14
2022-11-28T22:54:39.680Z,95.88
2022-11-28T22:57:24.929Z,96.17
2022-11-28T23:00:10.969Z,96.21
2022-11-28T23:02:55.058Z,96.08
2022-11-28T23:05:39.795Z,96.26
2022-11-28T23:08:23.714Z,96.37
2022-11-28T23:11:09.299Z,96.46
2022-11-28T23:13:55.227Z,96.53
2022-11-28T23:16:41.255Z,96.56
2022-11-28T23:19:26.391Z,96.35
2022-11-28T23:22:10.410Z,96.11
2022-11-28T23:24:54.316Z,95.96
2022-11-28T23:27:38.331Z,96.53
2022-11-28T23:30:23.959Z,95.73
2022-11-28T23:33:08.171Z,95.33
2022-11-28T23:35:51.948Z,95.03
2022-11-28T23:38:35.742Z,95.10
2022-11-28T23:41:19.991Z,95.02
2022-11-28T23:44:03.816Z,95.75
2022-11-28T23:46:49.702Z,95.54
2022-11-28T23:49:33.568Z,95.43
2022-11-28T23:52:17.327Z,95.47
2022-11-28T23:55:01.107Z,95.34
2022-11-28T23:57:44.873Z,95.40
